Map

Track Data

SID SEASON NUMBER BASIN SUBBASIN NAME ISO_TIME NATURE LAT LON WMO_WIND WMO_PRES WMO_AGENCY TRACK_TYPE DIST2LAND LANDFALL IFLAG USA_AGENCY USA_ATCF_ID USA_LAT USA_LON USA_RECORD USA_STATUS USA_WIND USA_PRES USA_SSHS USA_R34_NE USA_R34_SE USA_R34_SW USA_R34_NW USA_R50_NE USA_R50_SE USA_R50_SW USA_R50_NW USA_R64_NE USA_R64_SE USA_R64_SW USA_R64_NW USA_POCI USA_ROCI USA_RMW USA_EYE TOKYO_LAT TOKYO_LON TOKYO_GRADE TOKYO_WIND TOKYO_PRES TOKYO_R50_DIR TOKYO_R50_LONG TOKYO_R50_SHORT TOKYO_R30_DIR TOKYO_R30_LONG TOKYO_R30_SHORT TOKYO_LAND CMA_LAT CMA_LON CMA_CAT CMA_WIND CMA_PRES HKO_LAT HKO_LON HKO_CAT HKO_WIND HKO_PRES NEWDELHI_LAT NEWDELHI_LON NEWDELHI_GRADE NEWDELHI_WIND NEWDELHI_PRES NEWDELHI_CI NEWDELHI_DP NEWDELHI_POCI REUNION_LAT REUNION_LON REUNION_TYPE REUNION_WIND REUNION_PRES REUNION_TNUM REUNION_CI REUNION_RMW REUNION_R34_NE REUNION_R34_SE REUNION_R34_SW REUNION_R34_NW REUNION_R50_NE REUNION_R50_SE REUNION_R50_SW REUNION_R50_NW REUNION_R64_NE REUNION_R64_SE REUNION_R64_SW REUNION_R64_NW BOM_LAT BOM_LON BOM_TYPE BOM_WIND BOM_PRES BOM_TNUM BOM_CI BOM_RMW BOM_R34_NE BOM_R34_SE BOM_R34_SW BOM_R34_NW BOM_R50_NE BOM_R50_SE BOM_R50_SW BOM_R50_NW BOM_R64_NE BOM_R64_SE BOM_R64_SW BOM_R64_NW BOM_ROCI BOM_POCI BOM_EYE BOM_POS_METHOD BOM_PRES_METHOD NADI_LAT NADI_LON NADI_CAT NADI_WIND NADI_PRES WELLINGTON_LAT WELLINGTON_LON WELLINGTON_WIND WELLINGTON_PRES DS824_LAT DS824_LON DS824_STAGE DS824_WIND DS824_PRES TD9636_LAT TD9636_LON TD9636_STAGE TD9636_WIND TD9636_PRES TD9635_LAT TD9635_LON TD9635_WIND TD9635_PRES TD9635_ROCI NEUMANN_LAT NEUMANN_LON NEUMANN_CLASS NEUMANN_WIND NEUMANN_PRES MLC_LAT MLC_LON MLC_CLASS MLC_WIND MLC_PRES USA_GUST BOM_GUST BOM_GUST_PER REUNION_GUST REUNION_GUST_PER USA_SEAHGT USA_SEARAD_NE USA_SEARAD_SE USA_SEARAD_SW USA_SEARAD_NW STORM_SPEED STORM_DIR
1861237N35296 1861 21 NA NA NOT_NAMED 1861-08-24 12:00:00 TS 34.5000 -64.0000 main 956 943 _____________O -1 34.5000 -64.0000 TD 30 8 45
1861237N35296 1861 21 NA NA NOT_NAMED 1861-08-24 15:00:00 TS 34.8003 -63.6406 main 948 931 _____________P -1 34.8003 -63.6406 TD 32 8 44
1861237N35296 1861 21 NA NA NOT_NAMED 1861-08-24 18:00:00 TS 35.1000 -63.3000 main 936 920 _____________O -1 35.1000 -63.3000 TS 35 8 42
1861237N35296 1861 21 NA NA NOT_NAMED 1861-08-24 21:00:00 TS 35.3999 -62.9922 main 922 922 _____________P -1 35.3999 -62.9922 TS 37 7 76
1861237N35296 1861 21 NA NA NOT_NAMED 1861-08-25 00:00:00 TS 35.2667 -62.4667 80 hurdat_atl main 943 939 O____________O hurdat_atl AL031861 34.4000 -62.0000 HU 80 1 35.7000 -62.7000 TS 40 7 93
1861237N35296 1861 21 NA NA NOT_NAMED 1861-08-25 03:00:00 TS 35.3612 -62.1476 main 942 933 P____________P AL031861 34.7150 -61.8953 HU 80 1 36.0074 -62.3999 TS 42 5 60
1861237N35296 1861 21 NA NA NOT_NAMED 1861-08-25 06:00:00 TS 35.5200 -61.9200 80 hurdat_atl main 936 917 O____________O hurdat_atl AL031861 35.0000 -61.8000 HU 80 1 36.3000 -62.1000 TS 45 5 45
1861237N35296 1861 21 NA NA NOT_NAMED 1861-08-25 09:00:00 TS 35.6857 -61.7456 main 920 902 P____________P AL031861 35.2424 -61.7147 HU 80 1 36.5724 -61.8073 TS 50 5 35
1861237N35296 1861 21 NA NA NOT_NAMED 1861-08-25 12:00:00 TS 35.9333 -61.5667 80 hurdat_atl main 902 877 O____________O hurdat_atl AL031861 35.5000 -61.6000 HU 80 1 36.8000 -61.5000 TS 55 6 32
1861237N35296 1861 21 NA NA NOT_NAMED 1861-08-25 15:00:00 TS 36.2191 -61.3391 main 880 856 P____________P AL031861 35.8424 -61.4300 HU 80 1 36.9725 -61.1573 TS 57 7 35
1861237N35296 1861 21 NA NA NOT_NAMED 1861-08-25 18:00:00 TS 36.5000 -61.0667 80 hurdat_atl main 856 843 O____________O hurdat_atl AL031861 36.2000 -61.2000 HU 80 1 37.1000 -60.8000 TS 60 7 42
1861237N35296 1861 21 NA NA NOT_NAMED 1861-08-25 21:00:00 TS 36.7383 -60.7648 main 847 829 P____________P AL031861 36.5075 -60.9223 HU 80 1 37.1999 -60.4497 TS 60 7 47
1861237N35296 1861 21 NA NA NOT_NAMED 1861-08-26 00:00:00 TS 36.9667 -60.4333 80 hurdat_atl main 833 822 O____________O hurdat_atl AL031861 36.8000 -60.6000 HU 80 1 37.3000 -60.1000 TS 60 7 48
1861237N35296 1861 21 NA NA NOT_NAMED 1861-08-26 03:00:00 TS 37.2165 -60.0956 main 826 812 P____________P AL031861 37.0998 -60.2721 HU 80 1 37.4500 -59.7426 TS 65 7 48
1861237N35296 1861 21 NA NA NOT_NAMED 1861-08-26 06:00:00 TS 37.4667 -59.7333 80 hurdat_atl main 817 812 O____________O hurdat_atl AL031861 37.4000 -59.9000 HU 80 1 37.6000 -59.4000 HU 70 8 50
1861237N35296 1861 21 NA NA NOT_NAMED 1861-08-26 09:00:00 TS 37.7123 -59.3582 main 813 809 P____________P AL031861 37.7074 -59.4724 HU 80 1 37.7220 -59.1299 HU 70 8 54
1861237N35296 1861 21 NA NA NOT_NAMED 1861-08-26 12:00:00 TS 37.9333 -58.9333 80 hurdat_atl main 821 812 O____________O hurdat_atl AL031861 38.0000 -59.0000 HU 80 1 37.8000 -58.8000 HU 70 8 61
1861237N35296 1861 21 NA NA NOT_NAMED 1861-08-26 15:00:00 TS 38.1100 -58.4338 main 819 811 P____________P AL031861 38.2574 -58.5071 HU 80 1 37.8152 -58.2873 HU 72 9 68
1861237N35296 1861 21 NA NA NOT_NAMED 1861-08-26 18:00:00 TS 38.2667 -57.9000 80 hurdat_atl main 811 809 O____________O hurdat_atl AL031861 38.5000 -58.0000 HU 80 1 37.8000 -57.7000 HU 75 9 69
1861237N35296 1861 21 NA NA NOT_NAMED 1861-08-26 21:00:00 TS 38.4230 -57.3927 main 815 807 P____________P AL031861 38.7346 -57.5141 HU 80 1 37.7997 -57.1500 HU 77 9 68
1861237N35296 1861 21 NA NA NOT_NAMED 1861-08-27 00:00:00 TS 38.6000 -56.8667 80 hurdat_atl main 811 806 O____________O hurdat_atl AL031861 39.0000 -57.0000 HU 80 1 37.8000 -56.6000 HU 80 9 65
1861237N35296 1861 21 NA NA NOT_NAMED 1861-08-27 03:00:00 TS 38.8280 -56.3057 main 813 806 P____________P AL031861 39.3420 -56.4373 HU 80 1 37.7998 -56.0425 HU 80 10 63
1861237N35296 1861 21 NA NA NOT_NAMED 1861-08-27 06:00:00 TS 39.0667 -55.7000 80 hurdat_atl main 810 810 O____________O hurdat_atl AL031861 39.7000 -55.8000 HU 80 1 37.8000 -55.5000 HU 80 11 65
1861237N35296 1861 21 NA NA NOT_NAMED 1861-08-27 09:00:00 TS 39.2712 -55.0603 main 819 792 P____________P AL031861 40.0145 -55.0944 HU 80 1 37.7847 -54.9922 HU 77 11 69
1861237N35296 1861 21 NA NA NOT_NAMED 1861-08-27 12:00:00 TS 39.4667 -54.3667 80 hurdat_atl main 792 767 O____________O hurdat_atl AL031861 40.3000 -54.3000 HU 80 1 37.8000 -54.5000 HU 75 12 70
1861237N35296 1861 21 NA NA NOT_NAMED 1861-08-27 15:00:00 TS 39.6692 -53.6048 main 767 745 P____________P AL031861 40.5576 -53.4070 HU 80 1 37.8923 -54.0003 HU 75 12 71
1861237N35296 1861 21 NA NA NOT_NAMED 1861-08-27 18:00:00 TS 39.8667 -52.8333 80 hurdat_atl main 745 735 O____________O hurdat_atl AL031861 40.8000 -52.5000 HU 80 1 38.0000 -53.5000 HU 75 12 71
1861237N35296 1861 21 NA NA NOT_NAMED 1861-08-27 21:00:00 TS 40.0568 -52.1229 main 728 721 P____________P AL031861 41.0566 -51.6845 HU 80 1 38.0573 -52.9998 HU 75 11 71
1861237N35296 1861 21 NA NA NOT_NAMED 1861-08-28 00:00:00 TS 40.2333 -51.4333 80 hurdat_atl main 726 713 O____________O hurdat_atl AL031861 41.3000 -50.9000 HU 80 1 38.1000 -52.5000 HU 75 11 72
1861237N35296 1861 21 NA NA NOT_NAMED 1861-08-28 03:00:00 TS 40.3930 -50.7280 main 717 711 P____________P AL031861 41.5146 -50.0921 HU 80 1 38.1498 -51.9999 HU 75 11 74
1861237N35296 1861 21 NA NA NOT_NAMED 1861-08-28 06:00:00 TS 40.5333 -50.0333 80 hurdat_atl main 725 717 O____________O hurdat_atl AL031861 41.7000 -49.3000 HU 80 1 38.2000 -51.5000 HU 75 11 76
1861237N35296 1861 21 NA NA NOT_NAMED 1861-08-28 09:00:00 TS 40.6417 -49.3783 main 733 726 P____________P AL031861 41.8569 -48.5418 HU 80 1 38.2115 -51.0511 HU 75 10 77
1861237N35296 1861 21 NA NA NOT_NAMED 1861-08-28 12:00:00 TS 40.7667 -48.7000 80 hurdat_atl main 738 738 O____________O hurdat_atl AL031861 42.0000 -47.8000 HU 80 1 38.3000 -50.5000 HU 75 11 74
1861237N35296 1861 21 NA NA NOT_NAMED 1861-08-28 15:00:00 TS 40.9614 -47.9394 main 752 752 P____________P AL031861 42.1569 -47.0574 HU 80 1 38.5704 -49.7036 HU 72 12 71
1861237N35296 1861 21 NA NA NOT_NAMED 1861-08-28 18:00:00 TS 41.1667 -47.1333 80 hurdat_atl main 772 772 O____________O hurdat_atl AL031861 42.3000 -46.3000 HU 80 1 38.9000 -48.8000 HU 70 13 74
1861237N35296 1861 21 NA NA NOT_NAMED 1861-08-28 21:00:00 TS 41.3064 -46.3080 main 805 805 P____________P AL031861 42.3849 -45.4913 HU 85 2 39.1495 -47.9415 HU 70 13 76
1861237N35296 1861 21 NA NA NOT_NAMED 1861-08-29 00:00:00 TS 41.4667 -45.5000 90 hurdat_atl main 834 834 O____________O hurdat_atl AL031861 42.5000 -44.7000 HU 90 2 39.4000 -47.1000 HU 70 12 70
1861237N35296 1861 21 NA NA NOT_NAMED 1861-08-29 03:00:00 TS 41.7175 -44.7616 main 860 860 P____________P AL031861 42.7267 -43.9925 HU 90 2 39.6991 -46.2997 HU 70 12 64
1861237N35296 1861 21 NA NA NOT_NAMED 1861-08-29 06:00:00 TS 42.0000 -44.0333 90 hurdat_atl main 888 888 O____________O hurdat_atl AL031861 43.0000 -43.3000 HU 90 2 40.0000 -45.5000 HU 70 12 66
1861237N35296 1861 21 NA NA NOT_NAMED 1861-08-29 09:00:00 TS 42.2245 -43.2583 main 920 920 P____________P AL031861 43.2265 -42.5856 HU 90 2 40.2205 -44.6038 HU 70 13 67
1861237N35296 1861 21 NA NA NOT_NAMED 1861-08-29 12:00:00 TS 42.5000 -42.4667 90 hurdat_atl main 954 954 O____________O hurdat_atl AL031861 43.5000 -41.8000 HU 90 2 40.5000 -43.8000 HU 70 13 60
1861237N35296 1861 21 NA NA NOT_NAMED 1861-08-29 15:00:00 TS 42.8904 -41.6683 main 986 986 P____________P AL031861 43.8549 -40.8791 HU 90 2 40.9614 -43.2468 HU 67 15 54
1861237N35296 1861 21 NA NA NOT_NAMED 1861-08-29 18:00:00 TS 43.3667 -40.8667 90 hurdat_atl main 1015 1015 O____________O hurdat_atl AL031861 44.3000 -39.9000 HU 90 2 41.5000 -42.8000 HU 65 15 50
1861237N35296 1861 21 NA NA NOT_NAMED 1861-08-29 21:00:00 TS 43.8846 -40.0562 main 1044 1044 P____________P AL031861 44.8271 -38.9347 HU 90 2 41.9998 -42.2992 HU 65 16 47
1861237N35296 1861 21 NA NA NOT_NAMED 1861-08-30 00:00:00 TS 44.4333 -39.2667 90 hurdat_atl main 1078 1078 O____________O hurdat_atl AL031861 45.4000 -38.0000 HU 90 2 42.5000 -41.8000 HU 65 15 46
1861237N35296 1861 21 NA NA NOT_NAMED 1861-08-30 03:00:00 TS 44.9611 -38.5118 main 1113 1113 P____________P AL031861 45.9418 -37.1180 HU 90 2 42.9998 -41.2992 HU 62 15 44
1861237N35296 1861 21 NA NA NOT_NAMED 1861-08-30 06:00:00 MX 45.5000 -37.8000 90 hurdat_atl main 1147 1147 O____________O hurdat_atl AL031861 46.5000 -36.3000 HU 90 2 43.5000 -40.8000 EX 60 14 41
1861237N35296 1861 21 NA NA NOT_NAMED 1861-08-30 09:00:00 MX 46.0478 -37.1576 main 1178 1178 P____________P AL031861 47.0832 -35.5762 HU 90 2 43.9770 -40.3204 EX 60 12 37
1861237N35296 1861 21 NA NA NOT_NAMED 1861-08-30 12:00:00 MX 46.4200 -36.8000 90 hurdat_atl main 1198 1196 O____________O hurdat_atl AL031861 47.7000 -34.8000 HU 90 2 44.5000 -39.8000 EX 60 8 33
1861237N35296 1861 21 NA NA NOT_NAMED 1861-08-30 15:00:00 MX 46.7403 -36.4939 main 1214 1210 P____________P AL031861 48.3456 -33.8224 HU 90 2 45.1351 -39.1654 EX 60 5 19
1861237N35296 1861 21 NA NA NOT_NAMED 1861-08-30 18:00:00 MX 46.8667 -36.5667 90 hurdat_atl main 1203 1116 O____________O hurdat_atl AL031861 49.0000 -32.7000 HU 90 2 45.8000 -38.5000 EX 60 10 250
1861237N35296 1861 21 NA NA NOT_NAMED 1861-08-30 21:00:00 ET 46.3994 -37.8977 main 1116 1113 _____________P AL031861 HU -1 46.3994 -37.8977 EX 60 5 285
1861237N35296 1861 21 NA NA NOT_NAMED 1861-08-31 00:00:00 ET 47.0000 -37.3000 main 1149 1149 _____________O -1 47.0000 -37.3000 EX 60 15 34
1861237N35296 1861 21 NA NA NOT_NAMED 1861-08-31 03:00:00 ET 47.6499 -36.6495 main 1193 1192 _____________P -1 47.6499 -36.6495 EX 60 16 34
1861237N35296 1861 21 NA NA NOT_NAMED 1861-08-31 06:00:00 ET 48.3000 -36.0000 main 1232 1232 _____________O -1 48.3000 -36.0000 EX 60 958 15 34
1861237N35296 1861 21 NA NA NOT_NAMED 1861-08-31 09:00:00 ET 48.9129 -35.3896 main 1275 1275 _____________P -1 48.9129 -35.3896 EX 60 14 33
1861237N35296 1861 21 NA NA NOT_NAMED 1861-08-31 12:00:00 ET 49.5000 -34.8000 main 1286 _____________O -1 49.5000 -34.8000 EX 60 14 33

About IBTrACS Database

This database is a web-friendly format of International Best Track Archive for Climate Stewardship (IBTrACS), a global best track data archive curated by NOAA dating back to 1842.

Updated: 2021-10-25